Terminal Aerodrome Forecast
Issued by NWS King Salmon, AK

Home | Current Version | Previous Version | Text Only | Print | Product List | Glossary On
Versions: 1 2 3 4 5 6 7 8 9 10 11 12 13 14 15 16 17 18 19 20 21 22 23
000
FTAK31 PANC 181144
TAFAKN
TAF
PAKN 181144Z 1812/1912 36010KT 6SM -SN BKN006 OVC030
      TEMPO 1812/1815 1 1/2SM -SN BR OVC020
     FM181800 35010KT P6SM SCT025 BKN040=

USA.gov is the U.S. government's official web portal to all federal, state and local government web resources and services.